Delray, WV (26714)

8:35 PM EDT on August 28, 2015 (GMT -0400)
Our Lady's Mount, Short Mountain WV | | Change Station
CLOSE
Current Station
Personal Weather Station
Location: Delray, WV
Elevation: 1201 ft
Nearby Weather Stations

Elev 1201 ft 39.18 °N, 78.64 °W | Updated 3 minutes ago

Partly Cloudy
Partly Cloudy
68.4 °F
Feels Like 68.4 °F
N
0.0
Wind Variable Wind from West

Today
High -- | Low -- °F
--% Chance of Precip.
Yesterday
High -- | Low -- °F
Precip. -- in
6:39 AM 7:51 PM
Waxing Gibbous, 99% visible
Pressure 30.16 in
Visibility 10.0 miles
Clouds Clear
Dew Point 62 °F
Humidity 81%
Rainfall 0.00 in
Snow Depth Not available.
UV 0 out of 12
Pollen 9.00 out of 12
Air Quality Not available.
Flu Activity Not available.
METAR KOKV 290015Z AUTO 12003KT 10SM CLR 22/15 A3016 RMK AO2
Pressure 30.16 in
Visibility 10.0 miles
Clouds Clear
Dew Point 62 °F
Humidity 81%
Rainfall 0.00 in
Snow Depth Not available.
UV 0 out of 12
Pollen 9.00 out of 12
Air Quality Not available.
Flu Activity Not available.
METAR KOKV 290015Z AUTO 12003KT 10SM CLR 22/15 A3016 RMK AO2

10-Day Weather Forecast

×

Almanac

Astronomy

Aug. 28, 2015 Rise Set
Actual Time
Civil Twilight
Nautical Twilight
Astronomical Twilight
Moon
Length of Visible Light
Length of Day
Tomorrow will be .
, % of the Moon is Illuminated

Today's Extremes

State Highs State Lows

Community

WunderPhotos

Upload Photos

1,850,548 photos uploaded!

WunderBlogs® & News

Nearby

Air Quality

  Air Quality AQ Index Pollutant
Not available.

Snow Depth

Station Depth Elevation

Earthquake Activity

City Distance Mag. Time & Date
Minimum magnitude displayed is 2.5.

Coastal Water Temperatures

Place Temperature

Stations

Nearby Weather Stations

Station Location Temp. Windchill Dew Point Humidity Wind Precip. Elev Updated Type